Time;durP1;ratioP1;P1;durP2;ratioP2;P2;SDS_P1;SDS_P2;PMS_P1;PMS_P2;Temp;Humidity;BMP_temperature;BMP_pressure;BME280_temperature;BME280_humidity;BME280_pressure;Samples;Min_cycle;Max_cycle;Signal;HPM_P1;HPM_P2
2023/03/31 00:00:11;;;;;;;6.30;1.30;;;14.00;99.90;;;;;;5030224;28;20641;-73
2023/03/31 00:02:40;;;;;;;2.83;1.20;;;14.00;99.90;;;;;;5040247;28;20193;-73
2023/03/31 00:05:07;;;;;;;3.97;0.80;;;14.10;99.90;;;;;;5050109;28;20572;-73
2023/03/31 00:07:36;;;;;;;3.95;0.90;;;14.10;99.90;;;;;;5049694;28;20919;-73
2023/03/31 00:10:06;;;;;;;2.17;0.70;;;14.10;99.90;;;;;;5051170;28;20176;-73
2023/03/31 00:12:32;;;;;;;2.08;0.65;;;14.10;99.90;;;;;;5032557;28;20603;-73
2023/03/31 00:14:58;;;;;;;1.58;0.60;;;14.00;99.90;;;;;;5049828;28;20176;-73
2023/03/31 00:17:24;;;;;;;2.23;0.70;;;14.00;99.90;;;;;;5050618;28;20688;-72
2023/03/31 00:19:50;;;;;;;3.13;1.03;;;14.00;99.90;;;;;;5051272;28;20537;-72
2023/03/31 00:22:21;;;;;;;3.10;0.70;;;14.00;99.90;;;;;;5050414;28;20626;-73
2023/03/31 00:24:47;;;;;;;5.73;0.80;;;14.00;99.90;;;;;;5049769;28;20168;-72
2023/03/31 00:27:13;;;;;;;3.10;0.90;;;14.00;99.90;;;;;;5051199;28;20604;-72
2023/03/31 00:29:40;;;;;;;2.83;0.70;;;13.90;99.90;;;;;;5049312;28;20575;-72
2023/03/31 00:32:07;;;;;;;2.33;0.67;;;13.90;99.90;;;;;;5049247;28;20209;-73
2023/03/31 00:34:33;;;;;;;2.58;0.77;;;13.90;99.90;;;;;;5032924;28;20603;-73
2023/03/31 00:37:02;;;;;;;2.03;0.70;;;13.80;99.90;;;;;;5034459;28;20201;-72
2023/03/31 00:39:32;;;;;;;2.90;0.80;;;13.80;99.90;;;;;;5012830;28;20608;-72
2023/03/31 00:41:58;;;;;;;3.13;0.80;;;13.80;99.90;;;;;;5012883;28;20628;-72
2023/03/31 00:44:24;;;;;;;3.63;0.77;;;13.80;99.90;;;;;;5029462;28;20176;-72
2023/03/31 00:47:06;;;;;;;2.72;1.02;;;13.70;99.90;;;;;;5029498;28;20224;-72
2023/03/31 00:49:41;;;;;;;2.55;0.70;;;13.70;99.90;;;;;;5030479;28;20592;-72
2023/03/31 00:52:18;;;;;;;2.85;0.80;;;13.70;99.90;;;;;;5012586;28;20205;-71
2023/03/31 00:54:47;;;;;;;3.92;0.80;;;13.70;99.90;;;;;;5029215;28;20260;-72
2023/03/31 00:57:14;;;;;;;1.70;0.70;;;13.60;99.90;;;;;;5013082;28;20216;-72
2023/03/31 00:59:48;;;;;;;3.38;0.80;;;13.60;99.90;;;;;;5029221;28;20170;-72
2023/03/31 01:02:19;;;;;;;3.25;1.17;;;13.60;99.90;;;;;;5027946;28;20205;-72
2023/03/31 01:05:04;;;;;;;3.08;0.60;;;13.50;99.90;;;;;;5009600;28;20534;-72
2023/03/31 01:07:37;;;;;;;3.85;0.70;;;13.50;99.90;;;;;;5009270;28;20170;-72
2023/03/31 01:10:04;;;;;;;3.50;0.70;;;13.40;99.90;;;;;;5024421;28;20229;-72
2023/03/31 01:12:33;;;;;;;4.18;0.70;;;13.40;99.90;;;;;;5004621;28;20197;-72
2023/03/31 01:15:00;;;;;;;4.75;0.70;;;13.30;99.90;;;;;;5012512;28;20182;-72
2023/03/31 01:17:28;;;;;;;2.42;0.80;;;13.30;99.90;;;;;;5032733;28;20201;-72
2023/03/31 01:20:25;;;;;;;3.35;0.80;;;13.30;99.90;;;;;;5040927;28;20173;-71
2023/03/31 01:23:37;;;;;;;2.55;0.82;;;13.20;99.90;;;;;;5025779;28;20207;-72
2023/03/31 01:26:27;;;;;;;3.53;0.90;;;13.20;99.90;;;;;;5054592;28;20566;-72
2023/03/31 01:29:28;;;;;;;3.13;0.80;;;13.20;99.90;;;;;;5043592;28;20181;-72
2023/03/31 01:32:19;;;;;;;5.05;0.90;;;13.20;99.90;;;;;;5020962;28;20204;-71
2023/03/31 01:34:48;;;;;;;3.88;0.90;;;13.10;99.90;;;;;;5036185;28;20244;-71
2023/03/31 01:37:52;;;;;;;2.83;0.70;;;13.10;99.90;;;;;;5044039;28;20204;-71
2023/03/31 01:40:36;;;;;;;4.50;0.93;;;13.20;99.90;;;;;;5031612;28;20175;-71
2023/03/31 01:43:21;;;;;;;2.55;0.80;;;13.20;99.90;;;;;;5033286;28;20188;-71
2023/03/31 01:46:00;;;;;;;5.22;1.55;;;13.20;99.90;;;;;;5036295;28;20226;-72
2023/03/31 01:48:38;;;;;;;4.38;1.02;;;13.20;99.90;;;;;;5019181;28;20169;-73
2023/03/31 01:51:16;;;;;;;3.45;0.80;;;13.20;99.90;;;;;;5034063;28;20266;-71
2023/03/31 01:53:48;;;;;;;3.93;0.83;;;13.20;99.90;;;;;;5015775;28;20626;-72
2023/03/31 01:56:34;;;;;;;4.80;0.83;;;13.20;99.90;;;;;;5032792;28;20576;-73
2023/03/31 01:59:10;;;;;;;2.35;0.70;;;13.30;99.90;;;;;;5015869;28;20572;-73
2023/03/31 02:02:06;;;;;;;3.65;0.75;;;13.30;99.90;;;;;;5033282;28;20193;-73
2023/03/31 02:04:49;;;;;;;4.57;0.90;;;13.30;99.90;;;;;;5032321;28;20166;-72
2023/03/31 02:07:21;;;;;;;4.70;0.90;;;13.30;99.90;;;;;;5016084;28;20216;-71
2023/03/31 02:09:56;;;;;;;5.20;0.80;;;13.40;99.90;;;;;;5032436;28;20648;-71
2023/03/31 02:12:25;;;;;;;5.90;1.58;;;13.30;99.90;;;;;;5015450;28;20714;-71
2023/03/31 02:14:54;;;;;;;3.13;0.80;;;13.40;99.90;;;;;;4999384;28;20254;-72
2023/03/31 02:17:29;;;;;;;5.70;1.10;;;13.40;99.90;;;;;;5033493;28;20300;-71
2023/03/31 02:19:57;;;;;;;6.93;0.90;;;13.40;99.90;;;;;;5032544;28;20274;-71
2023/03/31 02:22:25;;;;;;;4.75;1.10;;;13.30;99.90;;;;;;5042963;28;20272;-71
2023/03/31 02:24:53;;;;;;;3.45;1.05;;;13.30;99.90;;;;;;5032384;28;20170;-73
2023/03/31 02:27:38;;;;;;;6.25;1.23;;;13.30;99.90;;;;;;5031321;28;20181;-72
2023/03/31 02:30:06;;;;;;;7.65;1.25;;;13.30;99.90;;;;;;4999225;28;20247;-73
2023/03/31 02:32:37;;;;;;;5.05;0.82;;;13.20;99.90;;;;;;5032576;28;20200;-73
2023/03/31 02:35:05;;;;;;;4.93;1.30;;;13.20;99.90;;;;;;5033446;28;20173;-72
2023/03/31 02:37:31;;;;;;;8.00;1.15;;;13.20;99.90;;;;;;5014993;28;20205;-72
2023/03/31 02:40:01;;;;;;;9.05;1.63;;;13.20;99.90;;;;;;5032005;28;20558;-72
2023/03/31 02:42:27;;;;;;;5.72;1.27;;;13.20;99.90;;;;;;5031053;28;20202;-72
2023/03/31 02:44:53;;;;;;;5.40;1.00;;;13.10;99.90;;;;;;5031890;28;20554;-72
2023/03/31 02:47:21;;;;;;;8.17;2.33;;;13.10;99.90;;;;;;5031458;28;20580;-72
2023/03/31 02:49:55;;;;;;;5.20;1.00;;;13.10;99.90;;;;;;5031887;28;20181;-72
2023/03/31 02:52:29;;;;;;;8.10;1.48;;;13.10;99.90;;;;;;4994585;28;20284;-73
2023/03/31 02:55:14;;;;;;;6.15;1.88;;;13.10;99.90;;;;;;5037058;28;20580;-72
2023/03/31 02:58:05;;;;;;;6.15;1.35;;;13.00;99.90;;;;;;5031004;28;20198;-73
2023/03/31 03:00:50;;;;;;;6.47;1.30;;;13.00;99.90;;;;;;5036631;28;20180;-73
2023/03/31 03:03:34;;;;;;;4.28;1.50;;;13.00;99.90;;;;;;5039425;28;20197;-72
2023/03/31 03:06:26;;;;;;;7.50;1.90;;;13.00;99.90;;;;;;5039382;28;20625;-72
2023/03/31 03:09:22;;;;;;;6.65;1.25;;;13.00;99.90;;;;;;5014590;28;20174;-72
2023/03/31 03:12:23;;;;;;;4.40;1.67;;;12.90;99.90;;;;;;5005762;28;20196;-72
2023/03/31 03:15:12;;;;;;;4.07;1.25;;;12.90;99.90;;;;;;5042591;28;20534;-72
2023/03/31 03:17:44;;;;;;;3.80;1.05;;;12.90;99.90;;;;;;5034108;28;20346;-72
2023/03/31 03:20:11;;;;;;;3.80;1.10;;;12.90;99.90;;;;;;5032894;28;20174;-72
2023/03/31 03:22:39;;;;;;;4.05;1.30;;;12.90;99.90;;;;;;5014427;28;20181;-72
2023/03/31 03:25:10;;;;;;;5.78;1.15;;;12.90;99.90;;;;;;5030739;28;20232;-72
2023/03/31 03:27:37;;;;;;;3.78;1.02;;;12.90;99.90;;;;;;5031131;28;20539;-70
2023/03/31 03:30:05;;;;;;;2.85;1.00;;;12.90;99.90;;;;;;5031822;28;20169;-72
2023/03/31 03:32:32;;;;;;;2.60;0.90;;;12.90;99.90;;;;;;5030662;28;20198;-72
2023/03/31 03:35:33;;;;;;;4.20;1.00;;;13.00;99.90;;;;;;5014358;28;20320;-72
2023/03/31 03:37:59;;;;;;;8.63;1.60;;;12.90;99.90;;;;;;5033831;28;20245;-71
2023/03/31 03:40:24;;;;;;;5.30;0.97;;;13.00;99.90;;;;;;5030255;28;20200;-72
2023/03/31 03:42:50;;;;;;;5.43;0.90;;;13.00;99.90;;;;;;5047652;23;20688;-79
2023/03/31 03:45:16;;;;;;;5.53;0.80;;;13.00;99.90;;;;;;5024159;28;20170;-79
2023/03/31 03:47:42;;;;;;;3.43;1.30;;;13.00;99.90;;;;;;5032024;28;20193;-79
2023/03/31 03:50:08;;;;;;;4.57;1.07;;;13.00;99.90;;;;;;5032119;28;20181;-78
2023/03/31 03:52:34;;;;;;;2.80;0.80;;;13.10;99.90;;;;;;5030130;28;20189;-79
2023/03/31 03:55:00;;;;;;;4.40;0.90;;;13.10;99.90;;;;;;5014197;28;20272;-78
2023/03/31 03:57:27;;;;;;;3.33;0.82;;;13.10;99.90;;;;;;5013665;28;20756;-78
2023/03/31 03:59:52;;;;;;;4.73;1.07;;;13.10;99.90;;;;;;5030659;28;20249;-78
2023/03/31 04:02:18;;;;;;;2.63;0.90;;;13.20;99.90;;;;;;5030076;28;20579;-75
2023/03/31 04:04:44;;;;;;;5.27;1.13;;;13.10;99.90;;;;;;5030607;28;20646;-75
2023/03/31 04:07:10;;;;;;;2.85;0.70;;;13.20;99.90;;;;;;5023944;28;20190;-75
2023/03/31 04:09:36;;;;;;;3.20;0.80;;;13.20;99.90;;;;;;5022122;28;20315;-74
2023/03/31 04:12:02;;;;;;;4.03;0.80;;;13.20;99.90;;;;;;5031011;28;20209;-75
2023/03/31 04:14:28;;;;;;;2.97;0.80;;;13.20;99.90;;;;;;5019339;28;20616;-75
2023/03/31 04:16:55;;;;;;;2.83;0.87;;;13.20;99.90;;;;;;5027069;28;20632;-74
2023/03/31 04:19:24;;;;;;;3.25;0.70;;;13.20;99.90;;;;;;5031098;28;20170;-75
2023/03/31 04:21:57;;;;;;;5.10;1.15;;;13.20;99.90;;;;;;5011212;28;20174;-76
2023/03/31 04:24:29;;;;;;;5.18;0.90;;;13.10;99.90;;;;;;5015237;28;20200;-76
2023/03/31 04:26:56;;;;;;;4.20;0.90;;;13.10;99.90;;;;;;5021972;28;20173;-76
2023/03/31 04:29:25;;;;;;;4.80;1.17;;;13.20;99.90;;;;;;5010784;28;20173;-76
2023/03/31 04:31:52;;;;;;;6.35;1.20;;;13.10;99.90;;;;;;5018174;28;20210;-76
2023/03/31 04:34:21;;;;;;;3.17;1.20;;;13.10;99.90;;;;;;4990205;28;20209;-77
2023/03/31 04:36:47;;;;;;;2.42;0.70;;;13.10;99.90;;;;;;4990812;28;20207;-77
2023/03/31 04:39:14;;;;;;;4.53;1.10;;;13.10;99.90;;;;;;4991717;28;20258;-77
2023/03/31 04:41:40;;;;;;;3.75;0.80;;;13.10;99.90;;;;;;4991479;28;20171;-77
2023/03/31 04:44:05;;;;;;;2.50;1.00;;;13.10;99.90;;;;;;5013257;28;20216;-77
2023/03/31 04:46:32;;;;;;;3.50;1.30;;;13.10;99.90;;;;;;5024750;28;20178;-77
2023/03/31 04:48:59;;;;;;;5.13;0.95;;;13.00;99.90;;;;;;5030666;28;20166;-77
2023/03/31 04:51:26;;;;;;;4.38;0.90;;;13.00;99.90;;;;;;5034615;28;20166;-76
2023/03/31 04:53:51;;;;;;;6.55;1.65;;;13.00;99.90;;;;;;5035244;28;20600;-76
2023/03/31 04:56:17;;;;;;;3.20;0.97;;;13.00;99.90;;;;;;5034817;28;20176;-77
2023/03/31 04:58:43;;;;;;;3.13;0.80;;;13.00;99.90;;;;;;5034114;28;20184;-77
2023/03/31 05:01:12;;;;;;;3.35;0.73;;;13.00;99.90;;;;;;5034748;28;20565;-77
2023/03/31 05:03:38;;;;;;;8.15;1.00;;;13.00;99.90;;;;;;5033957;28;20201;-77
2023/03/31 05:06:04;;;;;;;2.88;0.75;;;13.00;99.90;;;;;;5034841;28;20178;-77
2023/03/31 05:08:30;;;;;;;2.35;0.90;;;13.00;99.90;;;;;;5032050;28;20196;-78
2023/03/31 05:10:56;;;;;;;3.20;0.90;;;13.00;99.90;;;;;;5023756;28;20171;-78
2023/03/31 05:13:22;;;;;;;3.28;0.80;;;13.10;99.90;;;;;;5034272;28;20545;-77
2023/03/31 05:15:50;;;;;;;4.53;0.80;;;13.10;99.90;;;;;;5033852;28;20188;-78
2023/03/31 05:18:17;;;;;;;2.42;0.90;;;13.10;99.90;;;;;;5033003;28;20636;-77
2023/03/31 05:20:42;;;;;;;2.25;0.80;;;13.10;99.90;;;;;;5009505;28;20198;-77
2023/03/31 05:23:08;;;;;;;4.13;0.70;;;13.10;99.90;;;;;;4993788;28;20222;-77
2023/03/31 05:25:34;;;;;;;6.30;1.03;;;13.10;99.90;;;;;;5009905;28;20170;-77
2023/03/31 05:28:00;;;;;;;2.08;0.80;;;13.10;99.90;;;;;;5014463;28;20531;-77
2023/03/31 05:30:28;;;;;;;4.90;1.30;;;13.20;99.90;;;;;;5013633;28;20185;-78
2023/03/31 05:32:54;;;;;;;2.53;1.00;;;13.20;99.90;;;;;;5012850;28;20656;-77
2023/03/31 05:35:20;;;;;;;2.80;0.70;;;13.20;99.90;;;;;;5013587;28;20577;-78
2023/03/31 05:37:46;;;;;;;2.07;0.80;;;13.20;99.90;;;;;;5014889;28;20678;-78
2023/03/31 05:40:12;;;;;;;2.60;0.73;;;13.30;99.90;;;;;;5013440;28;20170;-80
2023/03/31 05:42:37;;;;;;;2.17;0.93;;;13.30;99.90;;;;;;5013068;28;20646;-81
2023/03/31 05:45:04;;;;;;;2.37;0.80;;;13.30;99.90;;;;;;5013343;28;20578;-81
2023/03/31 05:47:31;;;;;;;2.38;0.70;;;13.30;99.90;;;;;;5013805;28;20197;-81
2023/03/31 05:49:57;;;;;;;5.65;0.80;;;13.30;99.90;;;;;;5013210;28;20174;-79
2023/03/31 05:52:23;;;;;;;2.30;0.70;;;13.30;99.90;;;;;;5012838;28;20186;-78
2023/03/31 05:54:49;;;;;;;2.07;0.67;;;13.30;99.90;;;;;;5012801;28;20182;-78
2023/03/31 05:57:14;;;;;;;2.10;0.60;;;13.20;99.90;;;;;;4993613;28;20625;-78
2023/03/31 05:59:41;;;;;;;1.77;0.60;;;13.30;99.90;;;;;;4994907;28;21120;-79
2023/03/31 06:02:10;;;;;;;2.15;0.75;;;13.30;99.90;;;;;;4992728;28;20171;-78
2023/03/31 06:04:36;;;;;;;1.50;0.68;;;13.30;99.90;;;;;;4993354;28;20199;-78
2023/03/31 06:07:04;;;;;;;1.97;0.70;;;13.30;99.90;;;;;;5036583;28;20182;-78
2023/03/31 06:09:30;;;;;;;3.50;0.70;;;13.30;99.90;;;;;;5033018;28;20181;-78
2023/03/31 06:11:56;;;;;;;2.93;0.60;;;13.30;99.90;;;;;;5033602;28;20664;-77
2023/03/31 06:14:21;;;;;;;1.57;0.70;;;13.30;99.90;;;;;;5033371;28;21190;-78
2023/03/31 06:16:48;;;;;;;1.70;0.50;;;13.40;99.90;;;;;;5033617;28;20623;-78
2023/03/31 06:19:14;;;;;;;1.80;0.55;;;13.40;99.90;;;;;;5031239;28;20576;-77
2023/03/31 06:21:40;;;;;;;2.25;0.50;;;13.40;99.90;;;;;;5019644;28;20182;-77
2023/03/31 06:24:07;;;;;;;1.77;0.50;;;13.40;99.90;;;;;;4996934;28;20191;-77
2023/03/31 06:26:41;;;;;;;1.30;0.55;;;13.40;99.90;;;;;;5004080;28;20581;-78
2023/03/31 06:29:07;;;;;;;1.30;0.52;;;13.40;99.90;;;;;;5003547;28;20178;-77
2023/03/31 06:31:33;;;;;;;2.47;0.60;;;13.40;99.90;;;;;;5004293;28;20177;-77
2023/03/31 06:33:58;;;;;;;1.47;0.60;;;13.40;99.90;;;;;;5001812;28;20198;-77
2023/03/31 06:36:32;;;;;;;2.17;0.87;;;13.30;99.90;;;;;;5004413;28;20171;-78
2023/03/31 06:39:21;;;;;;;2.03;0.50;;;13.30;99.90;;;;;;5003143;28;20549;-78
2023/03/31 06:42:21;;;;;;;1.10;0.40;;;13.20;99.90;;;;;;4994358;28;20175;-78
2023/03/31 06:45:08;;;;;;;1.40;0.50;;;13.00;99.90;;;;;;4976891;28;20193;-78
2023/03/31 06:48:21;;;;;;;2.38;0.60;;;12.90;99.90;;;;;;4977908;28;20183;-77
2023/03/31 06:51:01;;;;;;;1.20;0.50;;;12.80;99.90;;;;;;4965308;28;20233;-78
2023/03/31 06:54:00;;;;;;;1.50;0.50;;;12.70;99.90;;;;;;4994329;28;20202;-80
2023/03/31 06:56:41;;;;;;;1.50;0.60;;;12.70;99.90;;;;;;4978696;28;20185;-78
2023/03/31 06:59:16;;;;;;;2.28;0.82;;;12.70;99.90;;;;;;4992876;28;20167;-77
2023/03/31 07:01:59;;;;;;;1.35;0.52;;;12.70;99.90;;;;;;5007387;28;20188;-79
2023/03/31 07:04:34;;;;;;;1.35;0.50;;;12.80;99.90;;;;;;4978881;28;20248;-77
2023/03/31 07:07:08;;;;;;;3.50;0.50;;;13.00;99.90;;;;;;4994197;28;20163;-77
2023/03/31 07:10:00;;;;;;;1.23;0.70;;;13.40;99.90;;;;;;4968759;28;20590;-77
2023/03/31 07:12:52;;;;;;;1.50;0.52;;;13.70;99.90;;;;;;4993757;28;20717;-76
2023/03/31 07:15:31;;;;;;;1.90;0.70;;;14.10;99.90;;;;;;4996605;28;21122;-76
2023/03/31 07:18:05;;;;;;;1.60;0.53;;;14.10;99.90;;;;;;4976930;28;20210;-77
2023/03/31 07:20:46;;;;;;;1.57;0.50;;;14.20;99.90;;;;;;5001006;28;20581;-76
2023/03/31 07:23:43;;;;;;;2.20;0.70;;;14.30;99.90;;;;;;5012555;28;20716;-75
2023/03/31 07:26:19;;;;;;;1.43;0.50;;;14.30;99.90;;;;;;5010602;28;20213;-76
2023/03/31 07:28:45;;;;;;;2.00;0.50;;;14.30;99.90;;;;;;5012675;28;20565;-76
2023/03/31 07:31:13;;;;;;;2.60;0.53;;;14.30;99.90;;;;;;5010887;28;20585;-75
2023/03/31 07:33:39;;;;;;;1.27;0.50;;;14.30;99.90;;;;;;5011365;28;20248;-75
2023/03/31 07:36:06;;;;;;;1.33;0.53;;;14.40;99.90;;;;;;5010780;28;20585;-75
2023/03/31 07:38:32;;;;;;;2.10;0.60;;;14.40;99.90;;;;;;5027806;28;20683;-76
2023/03/31 07:40:58;;;;;;;2.03;0.50;;;14.50;99.90;;;;;;5010606;28;20580;-75
2023/03/31 07:43:24;;;;;;;1.10;0.40;;;14.70;99.90;;;;;;5012693;28;20640;-75
2023/03/31 07:45:50;;;;;;;1.50;0.50;;;15.00;99.90;;;;;;5011971;28;21143;-75
2023/03/31 07:48:16;;;;;;;1.13;0.40;;;15.40;99.90;;;;;;5011760;28;20269;-75
2023/03/31 07:50:41;;;;;;;1.60;0.50;;;15.80;99.90;;;;;;5009909;28;20633;-75
2023/03/31 07:53:16;;;;;;;1.40;0.50;;;16.20;99.90;;;;;;5010767;28;20194;-75
2023/03/31 07:55:42;;;;;;;1.57;0.43;;;16.60;99.90;;;;;;5010986;28;20600;-75
2023/03/31 07:58:07;;;;;;;1.50;0.50;;;16.80;99.90;;;;;;5014053;28;20213;-75
2023/03/31 08:00:33;;;;;;;2.77;0.70;;;17.10;99.90;;;;;;5024506;28;20688;-75
2023/03/31 08:02:59;;;;;;;1.77;0.50;;;17.30;99.90;;;;;;5042822;28;20639;-74
2023/03/31 08:05:26;;;;;;;1.60;0.60;;;17.60;99.90;;;;;;5036310;28;20170;-78
2023/03/31 08:07:52;;;;;;;1.40;0.50;;;17.80;99.90;;;;;;5017587;28;20205;-78
2023/03/31 08:10:25;;;;;;;2.20;0.60;;;17.90;99.90;;;;;;5019740;28;20593;-77
2023/03/31 08:12:51;;;;;;;1.90;0.53;;;17.90;99.90;;;;;;5029905;28;20190;-76
2023/03/31 08:15:17;;;;;;;1.67;0.60;;;17.80;99.90;;;;;;5031165;28;20585;-76
2023/03/31 08:17:43;;;;;;;1.60;0.70;;;17.70;99.90;;;;;;5030471;28;20640;-79
2023/03/31 08:20:10;;;;;;;1.80;0.57;;;17.60;99.90;;;;;;5038721;28;20594;-76
2023/03/31 08:22:36;;;;;;;2.73;0.70;;;17.50;99.90;;;;;;5026082;28;20665;-76
2023/03/31 08:25:04;;;;;;;2.67;0.77;;;17.40;99.90;;;;;;5027719;28;20589;-75
2023/03/31 08:27:37;;;;;;;2.70;0.70;;;17.40;99.90;;;;;;5022944;28;20588;-77
2023/03/31 08:30:05;;;;;;;3.20;0.63;;;17.60;99.90;;;;;;5012409;28;20723;-78
2023/03/31 08:32:34;;;;;;;2.20;0.70;;;17.90;99.90;;;;;;4995955;28;20581;-78
2023/03/31 08:35:00;;;;;;;2.10;0.80;;;18.10;99.90;;;;;;5013434;28;20676;-78
2023/03/31 08:37:30;;;;;;;3.30;0.90;;;18.40;99.90;;;;;;5014262;28;21057;-78
2023/03/31 08:40:04;;;;;;;4.83;0.73;;;18.50;99.90;;;;;;5013460;28;20585;-79
2023/03/31 08:42:35;;;;;;;3.70;0.77;;;18.60;99.90;;;;;;5012782;28;20596;-78
2023/03/31 08:45:29;;;;;;;2.23;0.77;;;18.80;99.90;;;;;;5011947;28;20585;-79
2023/03/31 08:48:18;;;;;;;2.40;0.77;;;18.90;99.90;;;;;;5010462;28;20585;-78
2023/03/31 08:50:54;;;;;;;2.57;0.80;;;19.10;99.90;;;;;;5012088;28;21188;-78
2023/03/31 08:53:30;;;;;;;3.90;0.80;;;19.30;99.90;;;;;;5011646;28;21141;-78
2023/03/31 08:55:57;;;;;;;2.93;0.70;;;19.80;99.90;;;;;;5018824;28;20596;-78
2023/03/31 08:58:40;;;;;;;2.03;0.50;;;20.50;99.90;;;;;;5009928;28;20691;-79
2023/03/31 09:01:30;;;;;;;2.43;0.80;;;21.30;99.90;;;;;;5019374;28;20654;-79
2023/03/31 09:04:20;;;;;;;2.10;1.10;;;22.20;99.90;;;;;;5012157;28;20617;-79
2023/03/31 09:07:15;;;;;;;2.07;0.60;;;23.00;99.90;;;;;;5026274;28;21174;-80
2023/03/31 09:09:53;;;;;;;2.33;0.70;;;23.80;99.90;;;;;;4993400;28;21176;-80
2023/03/31 09:12:24;;;;;;;2.73;0.80;;;24.30;99.90;;;;;;4993370;28;20573;-80
2023/03/31 09:15:18;;;;;;;4.07;1.00;;;24.90;99.90;;;;;;5026788;28;20577;-80
2023/03/31 09:17:46;;;;;;;2.80;1.30;;;25.60;99.90;;;;;;4993669;28;20626;-80
2023/03/31 09:20:41;;;;;;;3.20;0.73;;;26.10;99.90;;;;;;5026781;28;20623;-80
2023/03/31 09:23:33;;;;;;;2.80;0.70;;;26.60;99.90;;;;;;5009663;28;20644;-80
2023/03/31 09:26:01;;;;;;;3.17;0.80;;;27.20;99.90;;;;;;4967287;28;20590;-79
2023/03/31 09:28:36;;;;;;;4.67;1.00;;;27.60;99.90;;;;;;4974505;28;20590;-80
2023/03/31 09:31:15;;;;;;;2.77;0.90;;;27.70;99.90;;;;;;4990275;28;20588;-80
2023/03/31 09:33:44;;;;;;;2.10;0.80;;;27.50;99.90;;;;;;4991687;28;20604;-80
2023/03/31 09:36:18;;;;;;;4.03;0.90;;;27.00;99.90;;;;;;4991007;28;20636;-79
2023/03/31 09:38:46;;;;;;;5.20;1.10;;;26.50;99.90;;;;;;4995199;28;20626;-78
2023/03/31 09:41:15;;;;;;;5.93;0.97;;;26.00;99.90;;;;;;4995282;28;20669;-78
2023/03/31 09:43:42;;;;;;;4.47;1.00;;;25.40;99.90;;;;;;4995477;28;20626;-78
2023/03/31 09:46:26;;;;;;;3.90;0.90;;;24.70;99.90;;;;;;5005132;28;20592;-78
2023/03/31 09:49:08;;;;;;;3.73;0.90;;;24.10;99.40;;;;;;5013658;28;20578;-77
2023/03/31 09:51:36;;;;;;;3.30;0.80;;;23.50;99.30;;;;;;5027001;28;20600;-77
2023/03/31 09:54:09;;;;;;;5.63;1.10;;;23.00;99.90;;;;;;4998488;28;21180;-77
2023/03/31 09:56:41;;;;;;;3.20;1.07;;;22.90;99.90;;;;;;5032006;28;20616;-78
2023/03/31 09:59:20;;;;;;;3.00;0.80;;;23.20;99.90;;;;;;5029884;28;20585;-78
2023/03/31 10:01:49;;;;;;;2.60;0.77;;;23.60;99.90;;;;;;5014768;28;20561;-78
2023/03/31 10:04:22;;;;;;;3.60;0.80;;;23.90;99.90;;;;;;5029128;28;20617;-78
2023/03/31 10:06:51;;;;;;;4.20;0.97;;;23.90;99.90;;;;;;5014573;28;20591;-78
2023/03/31 10:09:17;;;;;;;4.63;0.80;;;23.90;99.90;;;;;;5012560;28;20572;-77
2023/03/31 10:12:05;;;;;;;4.97;1.20;;;24.00;99.90;;;;;;5029872;28;20578;-78
2023/03/31 10:14:44;;;;;;;4.30;1.10;;;23.80;97.10;;;;;;5013480;28;20616;-79
2023/03/31 10:17:15;;;;;;;4.05;1.10;;;23.80;99.90;;;;;;5013346;28;21313;-79
2023/03/31 10:19:48;;;;;;;3.03;1.07;;;23.70;99.10;;;;;;5014824;28;20509;-78
2023/03/31 10:22:22;;;;;;;3.20;0.90;;;23.70;99.60;;;;;;5014972;28;20581;-78
2023/03/31 10:24:50;;;;;;;5.47;1.30;;;23.70;99.90;;;;;;5013915;28;20570;-79
2023/03/31 10:27:28;;;;;;;3.93;0.90;;;23.50;99.40;;;;;;5013914;28;20681;-79
2023/03/31 10:29:56;;;;;;;4.20;1.10;;;23.30;97.40;;;;;;5012207;28;20593;-78
2023/03/31 10:32:29;;;;;;;3.00;0.93;;;23.30;99.70;;;;;;5012358;28;20585;-78
2023/03/31 10:34:57;;;;;;;7.37;1.23;;;23.40;99.90;;;;;;5015467;28;20639;-78
2023/03/31 10:37:28;;;;;;;2.60;0.90;;;23.60;99.90;;;;;;5014938;28;20668;-78
2023/03/31 10:40:06;;;;;;;5.40;0.90;;;23.80;99.90;;;;;;5014415;28;20584;-78
2023/03/31 10:42:32;;;;;;;3.60;0.80;;;24.20;99.90;;;;;;5013693;28;21020;-78
2023/03/31 10:45:35;;;;;;;3.90;1.10;;;24.70;99.90;;;;;;5000362;28;20667;-78
2023/03/31 10:48:01;;;;;;;4.35;1.10;;;25.10;99.90;;;;;;5006043;28;20750;-78
2023/03/31 10:50:30;;;;;;;6.90;1.30;;;25.50;98.50;;;;;;5031807;28;20182;-78
2023/03/31 10:53:12;;;;;;;4.07;1.03;;;25.50;97.40;;;;;;5013889;28;20285;-78
2023/03/31 10:55:46;;;;;;;2.80;0.80;;;25.30;95.80;;;;;;5008134;28;20695;-78
2023/03/31 10:58:20;;;;;;;2.70;0.73;;;25.10;95.60;;;;;;5032441;28;20623;-77
2023/03/31 11:01:10;;;;;;;2.17;0.70;;;24.80;94.80;;;;;;4999186;28;20604;-78
2023/03/31 11:03:36;;;;;;;3.03;0.77;;;24.40;94.20;;;;;;5030809;28;20610;-77
2023/03/31 11:06:21;;;;;;;1.97;0.60;;;24.20;94.90;;;;;;5031507;28;20921;-78
2023/03/31 11:08:56;;;;;;;2.70;0.60;;;23.90;94.30;;;;;;5031043;28;20229;-78
2023/03/31 11:11:30;;;;;;;3.65;0.90;;;23.70;94.50;;;;;;5031061;28;20714;-78
2023/03/31 11:14:24;;;;;;;3.63;0.80;;;23.40;93.00;;;;;;4998785;28;20761;-78
2023/03/31 11:17:05;;;;;;;3.10;0.80;;;23.20;93.50;;;;;;4978149;28;21084;-77
2023/03/31 11:19:45;;;;;;;3.70;1.90;;;22.60;90.30;;;;;;5012239;28;20569;-77
2023/03/31 11:22:19;;;;;;;9.60;4.07;;;22.40;92.30;;;;;;5007542;28;21048;-77
2023/03/31 11:24:57;;;;;;;7.27;3.97;;;22.20;92.80;;;;;;5010858;28;20573;-77
2023/03/31 11:27:41;;;;;;;4.87;1.80;;;22.00;93.50;;;;;;5011662;28;20641;-77
2023/03/31 11:30:06;;;;;;;3.67;1.00;;;21.70;94.10;;;;;;5012123;28;20617;-77
2023/03/31 11:32:32;;;;;;;6.10;1.30;;;21.40;94.40;;;;;;5010969;28;20624;-77
2023/03/31 11:35:21;;;;;;;3.13;1.20;;;21.10;94.70;;;;;;5011180;28;20185;-77
2023/03/31 11:38:32;;;;;;;1.70;0.80;;;20.90;95.00;;;;;;5011269;28;20216;-80
2023/03/31 11:41:09;;;;;;;7.30;1.40;;;20.60;95.50;;;;;;4958460;28;20597;-78
2023/03/31 11:43:42;;;;;;;3.60;1.30;;;20.50;96.00;;;;;;5017133;28;21002;-72
2023/03/31 11:46:39;;;;;;;2.90;0.90;;;20.40;96.30;;;;;;5020298;28;20589;-72
2023/03/31 11:49:15;;;;;;;4.03;1.27;;;20.20;96.00;;;;;;5012071;28;20600;-73
2023/03/31 11:52:01;;;;;;;3.63;0.80;;;20.10;96.00;;;;;;5020299;28;21195;-72
2023/03/31 11:54:30;;;;;;;4.18;1.00;;;19.90;95.90;;;;;;5009921;28;20735;-72
2023/03/31 11:56:56;;;;;;;3.57;1.00;;;19.80;95.10;;;;;;5010260;28;20498;-73
2023/03/31 11:59:28;;;;;;;4.40;1.20;;;19.80;96.30;;;;;;4994725;28;21205;-73
2023/03/31 12:02:09;;;;;;;3.20;0.90;;;19.80;96.80;;;;;;5010322;28;20574;-71
2023/03/31 12:04:45;;;;;;;4.03;1.02;;;19.80;96.90;;;;;;5009146;28;20767;-72
2023/03/31 12:07:59;;;;;;;3.07;1.30;;;19.70;96.50;;;;;;5010827;28;20279;-72
2023/03/31 12:10:44;;;;;;;5.40;1.33;;;19.70;97.00;;;;;;4959541;28;21378;-72
2023/03/31 12:13:34;;;;;;;3.53;1.10;;;19.60;97.50;;;;;;4966462;28;20616;-72
2023/03/31 12:16:16;;;;;;;4.60;1.23;;;19.50;97.90;;;;;;4982108;28;20594;-72
2023/03/31 12:19:07;;;;;;;9.00;1.50;;;19.40;98.30;;;;;;4990738;28;20638;-73
2023/03/31 12:21:36;;;;;;;4.20;0.90;;;19.40;98.80;;;;;;5007369;28;20946;-72
2023/03/31 12:24:02;;;;;;;3.33;0.97;;;19.40;99.10;;;;;;5011689;28;21203;-72
2023/03/31 12:26:50;;;;;;;5.53;1.10;;;19.40;99.50;;;;;;5010944;28;20597;-73
2023/03/31 12:29:59;;;;;;;4.27;1.20;;;19.40;99.90;;;;;;5009093;28;20778;-73
2023/03/31 12:32:29;;;;;;;6.30;1.60;;;19.40;99.90;;;;;;4933873;28;21000;-73
2023/03/31 12:35:16;;;;;;;3.27;0.90;;;19.50;99.90;;;;;;4918847;29;20601;-72
2023/03/31 12:38:00;;;;;;;7.23;0.80;;;19.60;99.70;;;;;;4989854;28;20641;-72
2023/03/31 12:40:43;;;;;;;5.80;1.00;;;19.60;99.00;;;;;;5019255;28;20597;-72
2023/03/31 12:43:34;;;;;;;3.67;1.03;;;19.60;99.10;;;;;;5028923;28;21265;-72
2023/03/31 12:46:16;;;;;;;4.83;1.10;;;19.60;98.10;;;;;;5029686;28;20584;-72
2023/03/31 12:49:11;;;;;;;4.27;1.00;;;19.60;98.70;;;;;;5029810;28;20591;-73
2023/03/31 12:51:52;;;;;;;3.10;0.67;;;19.60;98.90;;;;;;4994262;28;20593;-72
2023/03/31 12:54:42;;;;;;;3.70;0.87;;;19.60;99.20;;;;;;5009995;28;20609;-73
2023/03/31 12:57:07;;;;;;;6.27;1.40;;;19.60;98.80;;;;;;5009530;28;20636;-72
2023/03/31 12:59:38;;;;;;;5.20;1.10;;;19.60;98.90;;;;;;5009649;28;20581;-73
2023/03/31 13:02:15;;;;;;;7.23;1.67;;;19.60;98.50;;;;;;5010511;28;20541;-73
2023/03/31 13:04:42;;;;;;;4.90;1.23;;;19.60;98.10;;;;;;5010384;28;20692;-72
2023/03/31 13:07:26;;;;;;;3.53;0.90;;;19.60;98.80;;;;;;5009766;28;20581;-73
2023/03/31 13:09:57;;;;;;;5.57;1.20;;;19.40;98.80;;;;;;5009453;28;20600;-72
2023/03/31 13:12:26;;;;;;;4.50;1.00;;;19.20;98.90;;;;;;4995575;28;20679;-72
2023/03/31 13:14:58;;;;;;;4.33;1.23;;;19.10;99.20;;;;;;5013204;28;20701;-72
2023/03/31 13:17:34;;;;;;;3.17;0.80;;;19.00;99.60;;;;;;5013609;28;20639;-73
2023/03/31 13:20:29;;;;;;;3.83;0.93;;;18.90;99.90;;;;;;5012873;28;20584;-72
2023/03/31 13:23:16;;;;;;;2.73;0.80;;;18.80;99.90;;;;;;4994833;28;20950;-72